sensor_id;sensor_type;location;lat;lon;timestamp;temperature;humidity
33955;DHT22;20233;50.804;7.126;2023-03-01T00:01:00;0.30;99.90
33955;DHT22;20233;50.804;7.126;2023-03-01T00:03:25;0.30;99.90
33955;DHT22;20233;50.804;7.126;2023-03-01T00:05:51;0.20;99.90
33955;DHT22;20233;50.804;7.126;2023-03-01T00:08:16;0.20;99.90
33955;DHT22;20233;50.804;7.126;2023-03-01T00:10:42;0.20;99.90
33955;DHT22;20233;50.804;7.126;2023-03-01T00:13:07;0.10;99.90
33955;DHT22;20233;50.804;7.126;2023-03-01T00:15:33;0.10;99.90
33955;DHT22;20233;50.804;7.126;2023-03-01T00:18:00;0.10;99.90
33955;DHT22;20233;50.804;7.126;2023-03-01T00:20:25;0.10;99.90
33955;DHT22;20233;50.804;7.126;2023-03-01T00:22:51;0.00;99.90
33955;DHT22;20233;50.804;7.126;2023-03-01T00:25:16;0.00;99.90
33955;DHT22;20233;50.804;7.126;2023-03-01T00:27:42;0.00;99.90
33955;DHT22;20233;50.804;7.126;2023-03-01T00:30:08;0.00;99.90
33955;DHT22;20233;50.804;7.126;2023-03-01T00:32:33;0.00;99.90
33955;DHT22;20233;50.804;7.126;2023-03-01T00:34:59;-0.10;99.90
33955;DHT22;20233;50.804;7.126;2023-03-01T00:37:25;-0.10;99.90
33955;DHT22;20233;50.804;7.126;2023-03-01T00:39:50;-0.10;99.90
33955;DHT22;20233;50.804;7.126;2023-03-01T00:42:16;-0.10;99.90
33955;DHT22;20233;50.804;7.126;2023-03-01T00:44:42;-0.10;99.90
33955;DHT22;20233;50.804;7.126;2023-03-01T00:47:08;-0.10;99.90
33955;DHT22;20233;50.804;7.126;2023-03-01T00:49:33;-0.10;99.90
33955;DHT22;20233;50.804;7.126;2023-03-01T00:51:59;-0.20;99.90
33955;DHT22;20233;50.804;7.126;2023-03-01T00:54:24;-0.20;99.90
33955;DHT22;20233;50.804;7.126;2023-03-01T00:56:50;-0.20;99.90
33955;DHT22;20233;50.804;7.126;2023-03-01T00:59:16;-0.20;99.90
33955;DHT22;20233;50.804;7.126;2023-03-01T01:01:41;-0.20;99.90
33955;DHT22;20233;50.804;7.126;2023-03-01T01:04:09;-0.30;99.90
33955;DHT22;20233;50.804;7.126;2023-03-01T01:06:38;-0.30;99.90
33955;DHT22;20233;50.804;7.126;2023-03-01T01:09:05;-0.30;99.90
33955;DHT22;20233;50.804;7.126;2023-03-01T01:11:32;-0.40;99.90
33955;DHT22;20233;50.804;7.126;2023-03-01T01:13:59;-0.30;99.90
33955;DHT22;20233;50.804;7.126;2023-03-01T01:16:26;-0.30;99.90
33955;DHT22;20233;50.804;7.126;2023-03-01T01:18:52;-0.40;99.90
33955;DHT22;20233;50.804;7.126;2023-03-01T01:21:20;-0.40;99.90
33955;DHT22;20233;50.804;7.126;2023-03-01T01:23:47;-0.40;99.90
33955;DHT22;20233;50.804;7.126;2023-03-01T01:26:15;-0.40;99.90
33955;DHT22;20233;50.804;7.126;2023-03-01T01:28:41;-0.50;99.90
33955;DHT22;20233;50.804;7.126;2023-03-01T01:31:07;-0.50;99.90
33955;DHT22;20233;50.804;7.126;2023-03-01T01:33:32;-0.60;99.90
33955;DHT22;20233;50.804;7.126;2023-03-01T01:35:58;-0.60;99.90
33955;DHT22;20233;50.804;7.126;2023-03-01T01:38:24;-0.60;99.90
33955;DHT22;20233;50.804;7.126;2023-03-01T01:40:50;-0.70;99.90
33955;DHT22;20233;50.804;7.126;2023-03-01T01:43:25;-0.70;99.90
33955;DHT22;20233;50.804;7.126;2023-03-01T01:45:51;-0.70;99.90
33955;DHT22;20233;50.804;7.126;2023-03-01T01:48:23;-0.70;99.90
33955;DHT22;20233;50.804;7.126;2023-03-01T01:50:59;-0.70;99.90
33955;DHT22;20233;50.804;7.126;2023-03-01T01:53:25;-0.70;99.90
33955;DHT22;20233;50.804;7.126;2023-03-01T01:55:54;-0.70;99.90
33955;DHT22;20233;50.804;7.126;2023-03-01T01:58:24;-0.70;99.90
33955;DHT22;20233;50.804;7.126;2023-03-01T02:00:51;-0.70;99.90
33955;DHT22;20233;50.804;7.126;2023-03-01T02:03:27;-0.80;99.90
33955;DHT22;20233;50.804;7.126;2023-03-01T02:08:27;-0.70;99.90
33955;DHT22;20233;50.804;7.126;2023-03-01T02:10:54;-0.80;99.90
33955;DHT22;20233;50.804;7.126;2023-03-01T02:13:21;-0.90;99.90
33955;DHT22;20233;50.804;7.126;2023-03-01T02:15:46;-0.90;99.90
33955;DHT22;20233;50.804;7.126;2023-03-01T02:18:16;-0.90;99.90
33955;DHT22;20233;50.804;7.126;2023-03-01T02:20:58;-1.00;99.90
33955;DHT22;20233;50.804;7.126;2023-03-01T02:23:27;-1.00;99.90
33955;DHT22;20233;50.804;7.126;2023-03-01T02:26:03;-1.00;99.90
33955;DHT22;20233;50.804;7.126;2023-03-01T02:28:38;-1.00;99.90
33955;DHT22;20233;50.804;7.126;2023-03-01T02:31:07;-1.00;99.90
33955;DHT22;20233;50.804;7.126;2023-03-01T02:33:53;-1.00;99.90
33955;DHT22;20233;50.804;7.126;2023-03-01T02:36:25;-1.00;99.90
33955;DHT22;20233;50.804;7.126;2023-03-01T02:38:55;-1.00;99.90
33955;DHT22;20233;50.804;7.126;2023-03-01T02:41:22;-1.00;99.90
33955;DHT22;20233;50.804;7.126;2023-03-01T02:43:49;-1.00;99.90
33955;DHT22;20233;50.804;7.126;2023-03-01T02:46:20;-1.00;99.90
33955;DHT22;20233;50.804;7.126;2023-03-01T02:48:49;-1.10;99.90
33955;DHT22;20233;50.804;7.126;2023-03-01T02:54:25;-1.10;99.90
33955;DHT22;20233;50.804;7.126;2023-03-01T02:56:53;-1.10;99.90
33955;DHT22;20233;50.804;7.126;2023-03-01T02:59:21;-1.20;99.90
33955;DHT22;20233;50.804;7.126;2023-03-01T03:01:48;-1.20;99.90
33955;DHT22;20233;50.804;7.126;2023-03-01T03:04:17;-1.20;99.90
33955;DHT22;20233;50.804;7.126;2023-03-01T03:06:44;-1.20;99.90
33955;DHT22;20233;50.804;7.126;2023-03-01T03:09:10;-1.20;99.90
33955;DHT22;20233;50.804;7.126;2023-03-01T03:11:37;-1.20;99.90
33955;DHT22;20233;50.804;7.126;2023-03-01T03:14:04;-1.20;99.90
33955;DHT22;20233;50.804;7.126;2023-03-01T03:16:30;-1.30;99.90
33955;DHT22;20233;50.804;7.126;2023-03-01T03:18:56;-1.20;99.90
33955;DHT22;20233;50.804;7.126;2023-03-01T03:21:33;-1.20;99.90
33955;DHT22;20233;50.804;7.126;2023-03-01T03:23:59;-1.20;99.90
33955;DHT22;20233;50.804;7.126;2023-03-01T03:26:25;-1.30;99.90
33955;DHT22;20233;50.804;7.126;2023-03-01T03:28:50;-1.40;99.90
33955;DHT22;20233;50.804;7.126;2023-03-01T03:31:16;-1.30;99.90
33955;DHT22;20233;50.804;7.126;2023-03-01T03:33:42;-1.40;99.90
33955;DHT22;20233;50.804;7.126;2023-03-01T03:36:08;-1.50;99.90
33955;DHT22;20233;50.804;7.126;2023-03-01T03:38:39;-1.50;99.90
33955;DHT22;20233;50.804;7.126;2023-03-01T03:41:07;-1.50;99.90
33955;DHT22;20233;50.804;7.126;2023-03-01T03:43:36;-1.50;99.90
33955;DHT22;20233;50.804;7.126;2023-03-01T03:46:02;-1.60;99.90
33955;DHT22;20233;50.804;7.126;2023-03-01T03:48:33;-1.50;99.90
33955;DHT22;20233;50.804;7.126;2023-03-01T03:50:59;-1.50;99.90
33955;DHT22;20233;50.804;7.126;2023-03-01T03:53:28;-1.60;99.90
33955;DHT22;20233;50.804;7.126;2023-03-01T03:55:54;-1.60;99.90
33955;DHT22;20233;50.804;7.126;2023-03-01T03:58:22;-1.60;99.90
33955;DHT22;20233;50.804;7.126;2023-03-01T04:00:54;-1.60;99.90
33955;DHT22;20233;50.804;7.126;2023-03-01T04:03:25;-1.50;99.90
33955;DHT22;20233;50.804;7.126;2023-03-01T04:05:51;-1.50;99.90
33955;DHT22;20233;50.804;7.126;2023-03-01T04:08:22;-1.60;99.90
33955;DHT22;20233;50.804;7.126;2023-03-01T04:10:50;-1.70;99.90
33955;DHT22;20233;50.804;7.126;2023-03-01T04:13:21;-1.70;99.90
33955;DHT22;20233;50.804;7.126;2023-03-01T04:15:52;-1.80;99.90
33955;DHT22;20233;50.804;7.126;2023-03-01T04:18:20;-1.80;99.90
33955;DHT22;20233;50.804;7.126;2023-03-01T04:20:46;-1.90;99.90
33955;DHT22;20233;50.804;7.126;2023-03-01T04:23:17;-1.80;99.90
33955;DHT22;20233;50.804;7.126;2023-03-01T04:25:47;-1.80;99.90
33955;DHT22;20233;50.804;7.126;2023-03-01T04:28:23;-2.00;99.90
33955;DHT22;20233;50.804;7.126;2023-03-01T04:30:53;-1.90;99.90
33955;DHT22;20233;50.804;7.126;2023-03-01T04:33:19;-1.80;99.90
33955;DHT22;20233;50.804;7.126;2023-03-01T04:35:44;-1.80;99.90
33955;DHT22;20233;50.804;7.126;2023-03-01T04:38:10;-1.80;99.90
33955;DHT22;20233;50.804;7.126;2023-03-01T04:40:36;-1.80;99.90
33955;DHT22;20233;50.804;7.126;2023-03-01T04:43:03;-1.80;99.90
33955;DHT22;20233;50.804;7.126;2023-03-01T04:45:29;-1.90;99.90
33955;DHT22;20233;50.804;7.126;2023-03-01T04:47:55;-1.90;99.90
33955;DHT22;20233;50.804;7.126;2023-03-01T04:50:23;-1.90;99.90
33955;DHT22;20233;50.804;7.126;2023-03-01T04:52:49;-1.90;99.90
33955;DHT22;20233;50.804;7.126;2023-03-01T04:55:14;-1.90;99.90
33955;DHT22;20233;50.804;7.126;2023-03-01T04:57:40;-2.00;99.90
33955;DHT22;20233;50.804;7.126;2023-03-01T05:00:09;-2.00;99.90
33955;DHT22;20233;50.804;7.126;2023-03-01T05:02:46;-1.90;99.90
33955;DHT22;20233;50.804;7.126;2023-03-01T05:05:15;-2.00;99.90
33955;DHT22;20233;50.804;7.126;2023-03-01T05:07:40;-2.00;99.90
33955;DHT22;20233;50.804;7.126;2023-03-01T05:10:06;-2.00;99.90
33955;DHT22;20233;50.804;7.126;2023-03-01T05:12:32;-2.00;99.90
33955;DHT22;20233;50.804;7.126;2023-03-01T05:14:57;-2.00;99.90
33955;DHT22;20233;50.804;7.126;2023-03-01T05:17:23;-2.10;99.90
33955;DHT22;20233;50.804;7.126;2023-03-01T05:19:49;-2.10;99.90
33955;DHT22;20233;50.804;7.126;2023-03-01T05:22:16;-2.10;99.90
33955;DHT22;20233;50.804;7.126;2023-03-01T05:24:41;-2.10;99.90
33955;DHT22;20233;50.804;7.126;2023-03-01T05:27:07;-2.10;99.90
33955;DHT22;20233;50.804;7.126;2023-03-01T05:29:33;-2.20;99.90
33955;DHT22;20233;50.804;7.126;2023-03-01T05:32:01;-2.20;99.90
33955;DHT22;20233;50.804;7.126;2023-03-01T05:34:29;-2.20;99.90
33955;DHT22;20233;50.804;7.126;2023-03-01T05:36:55;-2.20;99.90
33955;DHT22;20233;50.804;7.126;2023-03-01T05:39:23;-2.20;99.90
33955;DHT22;20233;50.804;7.126;2023-03-01T05:41:52;-2.20;99.90
33955;DHT22;20233;50.804;7.126;2023-03-01T05:44:18;-2.20;99.90
33955;DHT22;20233;50.804;7.126;2023-03-01T05:46:44;-2.20;99.90
33955;DHT22;20233;50.804;7.126;2023-03-01T05:49:10;-2.20;99.90
33955;DHT22;20233;50.804;7.126;2023-03-01T05:51:36;-2.30;99.90
33955;DHT22;20233;50.804;7.126;2023-03-01T05:54:02;-2.30;99.90
33955;DHT22;20233;50.804;7.126;2023-03-01T05:56:27;-2.30;99.90
33955;DHT22;20233;50.804;7.126;2023-03-01T05:58:53;-2.30;99.90
33955;DHT22;20233;50.804;7.126;2023-03-01T06:01:18;-2.40;99.90
33955;DHT22;20233;50.804;7.126;2023-03-01T06:03:44;-2.30;99.90
33955;DHT22;20233;50.804;7.126;2023-03-01T06:06:09;-2.40;99.90
33955;DHT22;20233;50.804;7.126;2023-03-01T06:08:35;-2.40;99.90
33955;DHT22;20233;50.804;7.126;2023-03-01T06:11:00;-2.40;99.90
33955;DHT22;20233;50.804;7.126;2023-03-01T06:13:26;-2.40;99.90
33955;DHT22;20233;50.804;7.126;2023-03-01T06:15:52;-2.50;99.90
33955;DHT22;20233;50.804;7.126;2023-03-01T06:18:17;-2.50;99.90
33955;DHT22;20233;50.804;7.126;2023-03-01T06:20:52;-2.40;99.90
33955;DHT22;20233;50.804;7.126;2023-03-01T06:23:20;-2.40;99.90
33955;DHT22;20233;50.804;7.126;2023-03-01T06:25:45;-2.50;99.90
33955;DHT22;20233;50.804;7.126;2023-03-01T06:28:11;-2.40;99.90
33955;DHT22;20233;50.804;7.126;2023-03-01T06:30:36;-2.50;99.90
33955;DHT22;20233;50.804;7.126;2023-03-01T06:33:02;-2.50;99.90
33955;DHT22;20233;50.804;7.126;2023-03-01T06:35:31;-2.50;99.90
33955;DHT22;20233;50.804;7.126;2023-03-01T06:37:58;-2.50;99.90
33955;DHT22;20233;50.804;7.126;2023-03-01T06:40:24;-2.50;99.90
33955;DHT22;20233;50.804;7.126;2023-03-01T06:42:50;-2.40;99.90
33955;DHT22;20233;50.804;7.126;2023-03-01T06:45:18;-2.40;99.90
33955;DHT22;20233;50.804;7.126;2023-03-01T06:47:44;-2.40;99.90
33955;DHT22;20233;50.804;7.126;2023-03-01T06:50:10;-2.40;99.90
33955;DHT22;20233;50.804;7.126;2023-03-01T06:52:36;-2.50;99.90
33955;DHT22;20233;50.804;7.126;2023-03-01T06:55:02;-2.50;99.90
33955;DHT22;20233;50.804;7.126;2023-03-01T06:57:28;-2.50;99.90
33955;DHT22;20233;50.804;7.126;2023-03-01T06:59:54;-2.50;99.90
33955;DHT22;20233;50.804;7.126;2023-03-01T07:02:19;-2.40;99.90
33955;DHT22;20233;50.804;7.126;2023-03-01T07:04:45;-2.40;99.90
33955;DHT22;20233;50.804;7.126;2023-03-01T07:07:11;-2.40;99.90
33955;DHT22;20233;50.804;7.126;2023-03-01T07:09:37;-2.40;99.90
33955;DHT22;20233;50.804;7.126;2023-03-01T07:12:02;-2.40;99.90
33955;DHT22;20233;50.804;7.126;2023-03-01T07:14:28;-2.40;99.90
33955;DHT22;20233;50.804;7.126;2023-03-01T07:16:54;-2.30;99.90
33955;DHT22;20233;50.804;7.126;2023-03-01T07:19:21;-2.30;99.90
33955;DHT22;20233;50.804;7.126;2023-03-01T07:21:47;-2.30;99.90
33955;DHT22;20233;50.804;7.126;2023-03-01T07:24:13;-2.30;99.90
33955;DHT22;20233;50.804;7.126;2023-03-01T07:26:38;-2.20;99.90
33955;DHT22;20233;50.804;7.126;2023-03-01T07:29:06;-2.20;99.90
33955;DHT22;20233;50.804;7.126;2023-03-01T07:31:32;-2.20;99.90
33955;DHT22;20233;50.804;7.126;2023-03-01T07:33:59;-2.10;99.90
33955;DHT22;20233;50.804;7.126;2023-03-01T07:36:25;-2.10;99.90
33955;DHT22;20233;50.804;7.126;2023-03-01T07:38:51;-2.00;99.90
33955;DHT22;20233;50.804;7.126;2023-03-01T07:41:17;-1.90;99.90
33955;DHT22;20233;50.804;7.126;2023-03-01T07:43:42;-2.00;99.90
33955;DHT22;20233;50.804;7.126;2023-03-01T07:46:09;-2.00;99.90
33955;DHT22;20233;50.804;7.126;2023-03-01T07:48:35;-1.90;99.90
33955;DHT22;20233;50.804;7.126;2023-03-01T07:51:03;-1.90;99.90
33955;DHT22;20233;50.804;7.126;2023-03-01T07:53:32;-1.80;99.90
33955;DHT22;20233;50.804;7.126;2023-03-01T07:56:07;-1.80;99.90
33955;DHT22;20233;50.804;7.126;2023-03-01T07:58:40;-1.70;99.90
33955;DHT22;20233;50.804;7.126;2023-03-01T08:01:11;-1.70;99.90
33955;DHT22;20233;50.804;7.126;2023-03-01T08:03:38;-1.60;99.90
33955;DHT22;20233;50.804;7.126;2023-03-01T08:06:07;-1.60;99.90
33955;DHT22;20233;50.804;7.126;2023-03-01T08:08:35;-1.50;99.90
33955;DHT22;20233;50.804;7.126;2023-03-01T08:11:04;-1.40;99.90
33955;DHT22;20233;50.804;7.126;2023-03-01T08:13:32;-1.40;99.90
33955;DHT22;20233;50.804;7.126;2023-03-01T08:16:03;-1.40;99.90
33955;DHT22;20233;50.804;7.126;2023-03-01T08:18:31;-1.30;99.90
33955;DHT22;20233;50.804;7.126;2023-03-01T08:21:17;-1.30;99.90
33955;DHT22;20233;50.804;7.126;2023-03-01T08:23:44;-1.30;99.90
33955;DHT22;20233;50.804;7.126;2023-03-01T08:26:16;-1.30;99.90
33955;DHT22;20233;50.804;7.126;2023-03-01T08:28:45;-1.20;99.90
33955;DHT22;20233;50.804;7.126;2023-03-01T08:31:27;-1.20;99.90
33955;DHT22;20233;50.804;7.126;2023-03-01T08:33:57;-1.10;99.90
33955;DHT22;20233;50.804;7.126;2023-03-01T08:36:31;-1.10;99.90
33955;DHT22;20233;50.804;7.126;2023-03-01T08:38:58;-1.00;99.90
33955;DHT22;20233;50.804;7.126;2023-03-01T08:41:25;-1.00;99.90
33955;DHT22;20233;50.804;7.126;2023-03-01T08:43:52;-0.90;99.90
33955;DHT22;20233;50.804;7.126;2023-03-01T08:46:29;-0.90;99.90
33955;DHT22;20233;50.804;7.126;2023-03-01T08:48:57;-0.80;99.90
33955;DHT22;20233;50.804;7.126;2023-03-01T08:51:24;-0.70;99.90
33955;DHT22;20233;50.804;7.126;2023-03-01T08:53:53;-0.70;99.90
33955;DHT22;20233;50.804;7.126;2023-03-01T08:56:20;-0.60;99.90
33955;DHT22;20233;50.804;7.126;2023-03-01T08:58:48;-0.50;99.90
33955;DHT22;20233;50.804;7.126;2023-03-01T09:01:17;-0.50;99.90
33955;DHT22;20233;50.804;7.126;2023-03-01T09:03:44;-0.40;99.90
33955;DHT22;20233;50.804;7.126;2023-03-01T09:06:11;-0.30;99.90
33955;DHT22;20233;50.804;7.126;2023-03-01T09:08:40;-0.20;99.90
33955;DHT22;20233;50.804;7.126;2023-03-01T09:11:08;-0.10;99.90
33955;DHT22;20233;50.804;7.126;2023-03-01T09:13:36;-0.10;99.90
33955;DHT22;20233;50.804;7.126;2023-03-01T09:16:06;0.10;99.90
33955;DHT22;20233;50.804;7.126;2023-03-01T09:18:36;0.20;99.90
33955;DHT22;20233;50.804;7.126;2023-03-01T09:21:23;0.30;99.90
33955;DHT22;20233;50.804;7.126;2023-03-01T09:23:50;0.40;99.90
33955;DHT22;20233;50.804;7.126;2023-03-01T09:26:22;0.40;99.90
33955;DHT22;20233;50.804;7.126;2023-03-01T09:28:52;0.50;99.90
33955;DHT22;20233;50.804;7.126;2023-03-01T09:31:23;0.60;99.90
33955;DHT22;20233;50.804;7.126;2023-03-01T09:33:53;0.70;99.90
33955;DHT22;20233;50.804;7.126;2023-03-01T09:36:22;0.80;99.90
33955;DHT22;20233;50.804;7.126;2023-03-01T09:38:52;0.90;99.90
33955;DHT22;20233;50.804;7.126;2023-03-01T09:44:35;1.20;99.90
33955;DHT22;20233;50.804;7.126;2023-03-01T09:47:03;1.50;99.90
33955;DHT22;20233;50.804;7.126;2023-03-01T09:49:36;1.70;99.90
33955;DHT22;20233;50.804;7.126;2023-03-01T09:52:29;1.70;99.90
33955;DHT22;20233;50.804;7.126;2023-03-01T09:55:05;1.80;99.90
33955;DHT22;20233;50.804;7.126;2023-03-01T09:58:00;1.90;99.90
33955;DHT22;20233;50.804;7.126;2023-03-01T10:00:47;2.00;99.90
33955;DHT22;20233;50.804;7.126;2023-03-01T10:08:47;2.40;99.90
33955;DHT22;20233;50.804;7.126;2023-03-01T10:19:00;3.00;99.90
33955;DHT22;20233;50.804;7.126;2023-03-01T10:21:29;3.30;99.90
33955;DHT22;20233;50.804;7.126;2023-03-01T10:24:14;3.40;99.90
33955;DHT22;20233;50.804;7.126;2023-03-01T10:29:25;3.70;99.90
33955;DHT22;20233;50.804;7.126;2023-03-01T10:31:53;3.80;99.90
33955;DHT22;20233;50.804;7.126;2023-03-01T10:34:33;3.90;99.90
33955;DHT22;20233;50.804;7.126;2023-03-01T10:37:16;4.00;99.90
33955;DHT22;20233;50.804;7.126;2023-03-01T10:40:03;4.00;99.90
33955;DHT22;20233;50.804;7.126;2023-03-01T10:43:02;4.10;99.90
33955;DHT22;20233;50.804;7.126;2023-03-01T10:45:35;4.20;99.90
33955;DHT22;20233;50.804;7.126;2023-03-01T10:48:25;4.40;99.90
33955;DHT22;20233;50.804;7.126;2023-03-01T10:53:34;4.80;99.90
33955;DHT22;20233;50.804;7.126;2023-03-01T10:58:38;4.80;99.90
33955;DHT22;20233;50.804;7.126;2023-03-01T11:01:29;4.90;99.90
33955;DHT22;20233;50.804;7.126;2023-03-01T11:06:38;4.90;99.90
33955;DHT22;20233;50.804;7.126;2023-03-01T11:09:24;5.00;99.90
33955;DHT22;20233;50.804;7.126;2023-03-01T11:11:56;5.20;99.90
33955;DHT22;20233;50.804;7.126;2023-03-01T11:14:35;5.20;99.90
33955;DHT22;20233;50.804;7.126;2023-03-01T11:20:29;5.20;99.90
33955;DHT22;20233;50.804;7.126;2023-03-01T11:23:09;5.30;99.90
33955;DHT22;20233;50.804;7.126;2023-03-01T11:25:38;5.20;99.90
33955;DHT22;20233;50.804;7.126;2023-03-01T11:28:10;5.40;99.90
33955;DHT22;20233;50.804;7.126;2023-03-01T11:31:04;5.50;99.90
33955;DHT22;20233;50.804;7.126;2023-03-01T11:39:36;6.00;99.90
33955;DHT22;20233;50.804;7.126;2023-03-01T11:42:17;6.10;99.90
33955;DHT22;20233;50.804;7.126;2023-03-01T11:44:45;6.10;99.90
33955;DHT22;20233;50.804;7.126;2023-03-01T11:50:26;6.40;99.90
33955;DHT22;20233;50.804;7.126;2023-03-01T12:01:08;6.90;99.90
33955;DHT22;20233;50.804;7.126;2023-03-01T12:17:25;7.30;99.90
33955;DHT22;20233;50.804;7.126;2023-03-01T12:43:12;7.70;99.90
33955;DHT22;20233;50.804;7.126;2023-03-01T12:45:51;7.80;99.90
33955;DHT22;20233;50.804;7.126;2023-03-01T12:50:59;7.70;99.90
33955;DHT22;20233;50.804;7.126;2023-03-01T12:53:35;7.70;99.90
33955;DHT22;20233;50.804;7.126;2023-03-01T12:56:08;8.00;99.90
33955;DHT22;20233;50.804;7.126;2023-03-01T12:58:58;7.60;99.90
33955;DHT22;20233;50.804;7.126;2023-03-01T13:01:41;7.80;99.90
33955;DHT22;20233;50.804;7.126;2023-03-01T13:15:36;8.10;99.90
33955;DHT22;20233;50.804;7.126;2023-03-01T13:20:51;8.30;99.90
33955;DHT22;20233;50.804;7.126;2023-03-01T13:34:39;8.40;99.90
33955;DHT22;20233;50.804;7.126;2023-03-01T13:37:10;8.30;99.90
33955;DHT22;20233;50.804;7.126;2023-03-01T13:39:44;8.40;99.90
33955;DHT22;20233;50.804;7.126;2023-03-01T13:42:36;8.60;99.90
33955;DHT22;20233;50.804;7.126;2023-03-01T13:47:45;8.60;99.90
33955;DHT22;20233;50.804;7.126;2023-03-01T13:50:27;8.80;99.90
33955;DHT22;20233;50.804;7.126;2023-03-01T13:53:04;8.90;99.90
33955;DHT22;20233;50.804;7.126;2023-03-01T13:55:55;9.00;99.90
33955;DHT22;20233;50.804;7.126;2023-03-01T13:58:29;9.00;99.90
33955;DHT22;20233;50.804;7.126;2023-03-01T14:01:03;9.10;99.90
33955;DHT22;20233;50.804;7.126;2023-03-01T14:03:33;9.10;99.90
33955;DHT22;20233;50.804;7.126;2023-03-01T14:06:04;9.00;99.90
33955;DHT22;20233;50.804;7.126;2023-03-01T14:08:36;9.20;99.90
33955;DHT22;20233;50.804;7.126;2023-03-01T14:19:15;9.20;99.90
33955;DHT22;20233;50.804;7.126;2023-03-01T14:21:42;9.40;99.90
33955;DHT22;20233;50.804;7.126;2023-03-01T14:24:26;9.40;99.90
33955;DHT22;20233;50.804;7.126;2023-03-01T14:26:54;9.60;99.90
33955;DHT22;20233;50.804;7.126;2023-03-01T14:29:43;9.70;99.90
33955;DHT22;20233;50.804;7.126;2023-03-01T14:32:30;9.80;99.90
33955;DHT22;20233;50.804;7.126;2023-03-01T14:34:59;9.90;99.90
33955;DHT22;20233;50.804;7.126;2023-03-01T14:39:54;9.80;99.90
33955;DHT22;20233;50.804;7.126;2023-03-01T14:42:23;9.70;99.90
33955;DHT22;20233;50.804;7.126;2023-03-01T14:44:53;9.60;99.90
33955;DHT22;20233;50.804;7.126;2023-03-01T14:47:32;9.60;99.90
33955;DHT22;20233;50.804;7.126;2023-03-01T14:52:42;9.30;99.90
33955;DHT22;20233;50.804;7.126;2023-03-01T14:55:25;9.40;99.90
33955;DHT22;20233;50.804;7.126;2023-03-01T14:57:54;9.40;99.90
33955;DHT22;20233;50.804;7.126;2023-03-01T15:00:28;9.40;99.90
33955;DHT22;20233;50.804;7.126;2023-03-01T15:02:57;9.50;99.90
33955;DHT22;20233;50.804;7.126;2023-03-01T15:05:31;9.50;99.90
33955;DHT22;20233;50.804;7.126;2023-03-01T15:07:59;9.50;99.90
33955;DHT22;20233;50.804;7.126;2023-03-01T15:10:31;9.60;99.90
33955;DHT22;20233;50.804;7.126;2023-03-01T15:13:22;9.60;99.90
33955;DHT22;20233;50.804;7.126;2023-03-01T15:15:51;9.50;99.90
33955;DHT22;20233;50.804;7.126;2023-03-01T15:18:28;9.70;99.90
33955;DHT22;20233;50.804;7.126;2023-03-01T15:21:10;9.50;99.90
33955;DHT22;20233;50.804;7.126;2023-03-01T15:23:41;9.40;99.90
33955;DHT22;20233;50.804;7.126;2023-03-01T15:26:30;9.30;99.90
33955;DHT22;20233;50.804;7.126;2023-03-01T15:28:58;9.40;99.90
33955;DHT22;20233;50.804;7.126;2023-03-01T15:31:29;9.30;99.90
33955;DHT22;20233;50.804;7.126;2023-03-01T15:34:21;9.40;99.90
33955;DHT22;20233;50.804;7.126;2023-03-01T15:36:49;9.40;99.90
33955;DHT22;20233;50.804;7.126;2023-03-01T15:45:11;9.20;99.90
33955;DHT22;20233;50.804;7.126;2023-03-01T15:47:55;9.20;99.90
33955;DHT22;20233;50.804;7.126;2023-03-01T15:50:34;9.10;99.90
33955;DHT22;20233;50.804;7.126;2023-03-01T15:53:15;9.00;99.90
33955;DHT22;20233;50.804;7.126;2023-03-01T15:55:41;9.00;99.90
33955;DHT22;20233;50.804;7.126;2023-03-01T15:58:18;9.10;99.90
33955;DHT22;20233;50.804;7.126;2023-03-01T16:00:47;9.00;99.90
33955;DHT22;20233;50.804;7.126;2023-03-01T16:03:15;9.00;99.90
33955;DHT22;20233;50.804;7.126;2023-03-01T16:05:51;8.90;99.90
33955;DHT22;20233;50.804;7.126;2023-03-01T16:08:19;9.00;99.90
33955;DHT22;20233;50.804;7.126;2023-03-01T16:10:47;8.90;99.90
33955;DHT22;20233;50.804;7.126;2023-03-01T16:13:16;8.90;99.90
33955;DHT22;20233;50.804;7.126;2023-03-01T16:15:43;8.90;99.90
33955;DHT22;20233;50.804;7.126;2023-03-01T16:18:10;8.90;99.90
33955;DHT22;20233;50.804;7.126;2023-03-01T16:20:37;9.00;99.90
33955;DHT22;20233;50.804;7.126;2023-03-01T16:23:07;8.90;99.90
33955;DHT22;20233;50.804;7.126;2023-03-01T16:25:35;9.00;99.90
33955;DHT22;20233;50.804;7.126;2023-03-01T16:28:02;9.00;99.90
33955;DHT22;20233;50.804;7.126;2023-03-01T16:30:35;8.80;99.90
33955;DHT22;20233;50.804;7.126;2023-03-01T16:33:04;8.90;99.90
33955;DHT22;20233;50.804;7.126;2023-03-01T16:35:33;8.80;99.90
33955;DHT22;20233;50.804;7.126;2023-03-01T16:38:01;8.70;99.90
33955;DHT22;20233;50.804;7.126;2023-03-01T16:40:29;8.60;99.90
33955;DHT22;20233;50.804;7.126;2023-03-01T16:42:58;8.50;99.90
33955;DHT22;20233;50.804;7.126;2023-03-01T16:45:34;8.40;99.90
33955;DHT22;20233;50.804;7.126;2023-03-01T16:48:04;8.50;99.90
33955;DHT22;20233;50.804;7.126;2023-03-01T16:50:31;8.50;99.90
33955;DHT22;20233;50.804;7.126;2023-03-01T16:53:00;8.30;99.90
33955;DHT22;20233;50.804;7.126;2023-03-01T16:55:27;8.30;99.90
33955;DHT22;20233;50.804;7.126;2023-03-01T16:57:54;8.10;99.90
33955;DHT22;20233;50.804;7.126;2023-03-01T17:00:22;8.10;99.90
33955;DHT22;20233;50.804;7.126;2023-03-01T17:02:49;8.00;99.90
33955;DHT22;20233;50.804;7.126;2023-03-01T17:05:15;7.90;99.90
33955;DHT22;20233;50.804;7.126;2023-03-01T17:07:41;7.80;99.90
33955;DHT22;20233;50.804;7.126;2023-03-01T17:10:10;7.70;99.90
33955;DHT22;20233;50.804;7.126;2023-03-01T17:12:37;7.60;99.90
33955;DHT22;20233;50.804;7.126;2023-03-01T17:15:05;7.50;99.90
33955;DHT22;20233;50.804;7.126;2023-03-01T17:20:01;7.40;99.90
33955;DHT22;20233;50.804;7.126;2023-03-01T17:22:33;7.40;99.90
33955;DHT22;20233;50.804;7.126;2023-03-01T17:24:59;7.30;99.90
33955;DHT22;20233;50.804;7.126;2023-03-01T17:27:25;7.20;99.90
33955;DHT22;20233;50.804;7.126;2023-03-01T17:29:50;7.20;99.90
33955;DHT22;20233;50.804;7.126;2023-03-01T17:32:16;7.10;99.90
33955;DHT22;20233;50.804;7.126;2023-03-01T17:34:42;7.10;99.90
33955;DHT22;20233;50.804;7.126;2023-03-01T17:37:07;7.10;99.90
33955;DHT22;20233;50.804;7.126;2023-03-01T17:39:33;7.00;99.90
33955;DHT22;20233;50.804;7.126;2023-03-01T17:42:01;7.00;99.90
33955;DHT22;20233;50.804;7.126;2023-03-01T17:44:27;7.10;99.90
33955;DHT22;20233;50.804;7.126;2023-03-01T17:46:52;7.10;99.90
33955;DHT22;20233;50.804;7.126;2023-03-01T17:49:18;7.10;99.90
33955;DHT22;20233;50.804;7.126;2023-03-01T17:51:44;7.10;99.90
33955;DHT22;20233;50.804;7.126;2023-03-01T17:54:09;7.00;99.90
33955;DHT22;20233;50.804;7.126;2023-03-01T17:56:35;7.10;99.90
33955;DHT22;20233;50.804;7.126;2023-03-01T17:59:03;7.00;99.90
33955;DHT22;20233;50.804;7.126;2023-03-01T18:01:29;7.00;99.90
33955;DHT22;20233;50.804;7.126;2023-03-01T18:03:54;6.90;99.90
33955;DHT22;20233;50.804;7.126;2023-03-01T18:06:22;6.90;99.90
33955;DHT22;20233;50.804;7.126;2023-03-01T18:08:49;6.90;99.90
33955;DHT22;20233;50.804;7.126;2023-03-01T18:11:18;6.90;99.90
33955;DHT22;20233;50.804;7.126;2023-03-01T18:13:44;6.90;99.90
33955;DHT22;20233;50.804;7.126;2023-03-01T18:16:13;6.80;99.90